nws-alerts: Checking more than four warning/county codes can delay the loading of your pages. You should use a cron job to get the data.

Nearby METAR Reports

 

KFCI - Richmond/Chester, Virginia, USA
Distance from station: ESE 7mi, 12km
Updated: Sat, 20-Apr-2019 3:56am EDT
Overcast
Overcast
 Wind from SE
Wind: SE 7 mph , 11 km/h
Temperature: 64°F , 18°C
Dew Point: 63°F , 17°C
Humidity: 94%
Barometer: 29.56 inHg , 1001 hPa
Clouds: Overcast
Visibility: 10 miles , 16 km
Cloud details: Overcast 900 ft
2019/04/20 07:56 KFCI 200756Z AUTO 14006KT 10SM OVC009 18/17 A2956 RMK AO2 SLP023 T01830172
KPTB - Petersburg, Virginia, USA
Distance from station: SSE 19mi, 31km
Updated: Sat, 20-Apr-2019 4:15am EDT
Mostly cloudy
Mostly cloudy
 Wind from calm
Wind: Calm
Temperature: 64°F , 18°C
Dew Point: 63°F , 17°C
Humidity: 94%
Barometer: 29.56 inHg , 1001 hPa
Clouds: Mostly cloudy
Visibility: 10 miles , 16 km
Cloud details: Mostly cloudy 800 ft
Mostly cloudy 7000 ft
Mostly cloudy 8000 ft
2019/04/20 08:15 KPTB 200815Z AUTO 00000KT 10SM BKN008 BKN070 BKN080 18/17 A2956 RMK AO2 T01760165
 
KRIC - Richmond, Virginia, USA
Distance from station: ENE 19mi, 31km
Updated: Sat, 20-Apr-2019 3:54am EDT
Overcast
Overcast
 Wind from SE
Wind: SE 12 mph , 19 km/h
Temperature: 64°F , 18°C
Dew Point: 63°F , 17°C
Humidity: 94%
Barometer: 29.56 inHg , 1001 hPa
Clouds: Overcast
Visibility: 10 miles , 16 km
Cloud details: Few Clouds 900 ft
Partly cloudy 1500 ft
Overcast 7500 ft
2019/04/20 07:54 KRIC 200754Z 14010KT 10SM FEW009 SCT015 OVC075 18/17 A2956 RMK AO2 RAE29 SLP013 P0001 T01830172
KOFP - Richmond/Hanover, Virginia, USA
Distance from station: NNE 22mi, 36km
Updated: Sat, 20-Apr-2019 4:16am EDT
Overcast
Overcast
 Wind from varies
Wind: varies 3 mph , 6 km/h
Temperature: 66°F , 19°C
Dew Point: 63°F , 17°C
Humidity: 88%
Barometer: 29.56 inHg , 1001 hPa
Clouds: Overcast
Visibility: 10 miles , 16 km
Cloud details: Mostly cloudy 900 ft
Overcast 8000 ft
2019/04/20 08:16 KOFP 200816Z AUTO VRB03KT 10SM BKN009 OVC080 19/17 A2956 RMK AO2 T01890167
 
KW96 - Quinton, Virginia, USA
Distance from station: E 28mi, 46km
Updated: Fri, 19-Apr-2019 7:55pm EDT
NOT Current
Mostly cloudy
Mostly cloudy
 Wind from SE
Wind: SE 9 mph , 15 km/h
Temperature: 70°F , 21°C
Dew Point: 70°F , 21°C
Humidity: 100%
Barometer: 29.62 inHg , 1003 hPa
Clouds: Mostly cloudy
Visibility: 4 miles , 6 km
Cloud details: Partly cloudy 3500 ft
Partly cloudy 5500 ft
Mostly cloudy 7000 ft
2019/04/19 23:55 KW96 192355Z AUTO 13008KT 4SM SCT035 SCT055 BKN070 21/21 A2962 RMK AO1 P0006 60017 T02120212 10230 20212
KBKT - Blackstone Army, Virginia, USA
Distance from station: SW 30mi, 48km
Updated: Sat, 20-Apr-2019 4:15am EDT
Overcast
Overcast
 Wind from SSW
Wind: SSW 8 mph , 13 km/h, Gust: 20 mph , 31 km/h
Temperature: 64°F , 18°C
Dew Point: 64°F , 18°C
Humidity: 100%
Barometer: 29.56 inHg , 1001 hPa
Clouds: Overcast
Visibility: 10 miles , 16 km
Cloud details: Partly cloudy 1200 ft
Mostly cloudy 3200 ft
Overcast 6000 ft
2019/04/20 08:15 KBKT 200815Z AUTO 20007G17KT 10SM SCT012 BKN032 OVC060 18/18 A2956 RMK AO1 T01770177
 
KW81 - Crewe, Virginia, USA
Distance from station: SW 30mi, 49km
Updated: Sat, 20-Apr-2019 4:15am EDT
Overcast
Overcast
 Wind from SSW
Wind: SSW 5 mph , 7 km/h
Temperature: 63°F , 17°C
Dew Point: 63°F , 17°C
Humidity: 100%
Barometer: 29.55 inHg , 1000.7 hPa
Clouds: Overcast
Visibility: 10 miles , 16 km
Cloud details: Partly cloudy 3800 ft
Mostly cloudy 4700 ft
Overcast 7000 ft
2019/04/20 08:15 KW81 200815Z AUTO 20004KT 10SM SCT038 BKN047 OVC070 17/17 A2955 RMK AO1 T01720172
K7W4 - Bumpass, Virginia, USA
Distance from station: N 38mi, 61km
Updated: Thu, 18-Apr-2019 2:15am EDT
NOT Current
Clear
Clear
 Wind from calm
Wind: Calm
Temperature: 54°F , 12°C
Dew Point: 48°F , 9°C
Humidity: 82%
Barometer: 30.05 inHg , 1017.6 hPa
Clouds: Clear
Visibility: 10 miles , 16 km
2019/04/18 06:15 K7W4 180615Z AUTO 00000KT 10SM CLR 12/09 A3005 RMK AO1 T01160087
 
KFVX - Farmville, Virginia, USA
Distance from station: W 43mi, 69km
Updated: Sat, 20-Apr-2019 4:15am EDT
Mostly cloudy
Mostly cloudy
 Wind from S
Wind: S 7 mph , 11 km/h
Temperature: 63°F , 17°C
Dew Point: 61°F , 16°C
Humidity: 94%
Barometer: 29.52 inHg , 999.7 hPa
Clouds: Mostly cloudy
Visibility: 10 miles , 16 km
Cloud details: Partly cloudy 8000 ft
Mostly cloudy 10000 ft
2019/04/20 08:15 KFVX 200815Z AUTO 19006KT 10SM SCT080 BKN100 17/16 A2952 RMK AO2 T01720162
KW31 - Kenbridge, Virginia, USA
Distance from station: SW 43mi, 70km
Updated: Sat, 20-Apr-2019 4:15am EDT
Mostly cloudy
Mostly cloudy
 
Temperature: 64°F , 18°C
Dew Point: 63°F , 17°C
Humidity: 94%
Barometer: 29.55 inHg , 1000.7 hPa
Clouds: Mostly cloudy
Visibility: 10 miles , 16 km
Cloud details: Partly cloudy 1800 ft
Partly cloudy 2500 ft
Mostly cloudy 3000 ft
2019/04/20 08:15 KW31 200815Z AUTO 10SM SCT018 SCT025 BKN030 18/17 A2955 RMK AO1 T01750172
 
KLKU - Louisa, Virginia, USA
Distance from station: NNW 44mi, 72km
Updated: Sat, 20-Apr-2019 4:15am EDT
Light rain, Overcast
Light rain, Overcast
 Wind from SSE
Wind: SSE 7 mph , 11 km/h
Temperature: 64°F , 18°C
Dew Point: 63°F , 17°C
Humidity: 94%
Barometer: 29.57 inHg , 1001.4 hPa
Summary: Light rain
Clouds: Overcast
Visibility: 10 miles , 16 km
Cloud details: Mostly cloudy 900 ft
Mostly cloudy 1300 ft
Overcast 2100 ft
2019/04/20 08:15 KLKU 200815Z AUTO 16006KT 10SM -RA BKN009 BKN013 OVC021 18/17 A2957 RMK AO2 T01770169
KLVL - Lawrenceville, Virginia, USA
Distance from station: S 46mi, 75km
Updated: Fri, 19-Apr-2019 6:55pm EDT
NOT Current
Overcast
Overcast
 Wind from S
Wind: S 20 mph , 31 km/h, Gust: 32 mph , 52 km/h
Temperature: 70°F , 21°C
Dew Point: 68°F , 20°C
Humidity: 94%
Barometer: 29.62 inHg , 1003 hPa
Clouds: Overcast
Visibility: 4 miles , 6 km
Cloud details: Partly cloudy 1000 ft
Mostly cloudy 3200 ft
Overcast 10000 ft
2019/04/19 22:55 KLVL 192255Z AUTO 17017G28KT 4SM SCT010 BKN032 OVC100 21/20 A2962 RMK AO1 P0004 T02060201
 
KAKQ - Norfolk/Wakefld, Virginia, USA
Distance from station: SE 47mi, 75km
Updated: Sat, 20-Apr-2019 4:10am EDT
Light rain, Overcast
Light rain, Overcast
 Wind from calm
Wind: Calm
Temperature: 66°F , 19°C
Dew Point: 64°F , 18°C
Humidity: 94%
Barometer: 29.56 inHg , 1001 hPa
Summary: Light rain
Clouds: Overcast
Visibility: 7 miles , 11 km
Cloud details: Partly cloudy 1300 ft
Overcast 2100 ft
2019/04/20 08:10 KAKQ 200810Z AUTO 00000KT 7SM -RA SCT013 OVC021 19/18 A2956 RMK AO2 P0000 T01940178
KFYJ - West Point, Virginia, USA
Distance from station: E 48mi, 78km
Updated: Sat, 20-Apr-2019 4:15am EDT
Overcast
Overcast
 Wind from SSW
Wind: SSW 3 mph , 6 km/h
Temperature: 66°F , 19°C
Dew Point: 66°F , 19°C
Humidity: 100%
Barometer: 29.56 inHg , 1001 hPa
Clouds: Overcast
Visibility: 7 miles , 11 km
Cloud details: Partly cloudy 1400 ft
Mostly cloudy 1900 ft
Overcast 2700 ft
2019/04/20 08:15 KFYJ 200815Z AUTO 20003KT 7SM SCT014 BKN019 OVC027 19/19 A2956 RMK AO1 T01900188
 
KXSA - Tappahannock, Virginia, USA
Distance from station: NE 51mi, 82km
Updated: Sat, 20-Apr-2019 4:15am EDT
Heavy rain, Overcast
Heavy rain, Overcast
 Wind from SSE
Wind: SSE 8 mph , 13 km/h, Gust: 17 mph , 28 km/h
Temperature: 64°F , 18°C
Dew Point: 64°F , 18°C
Humidity: 100%
Barometer: 29.58 inHg , 1001.7 hPa
Summary: Heavy rain
Clouds: Overcast
Visibility: 2 1/2 miles , 4 km
Cloud details: Partly cloudy 1200 ft
Mostly cloudy 2000 ft
Overcast 3800 ft
2019/04/20 08:15 KXSA 200815Z AUTO 15007G15KT 2 1/2SM +RA SCT012 BKN020 OVC038 18/18 A2958 RMK AO2 LTG DSNT E P0016 T01810176
KEMV - Emporia, Virginia, USA
Distance from station: S 52mi, 84km
Updated: Sat, 20-Apr-2019 4:15am EDT

 Wind from SSE
Wind: SSE 5 mph , 7 km/h
Temperature: 64°F , 18°C
Dew Point: 64°F , 18°C
Humidity: 100%
Barometer: 29.58 inHg , 1001.7 hPa
2019/04/20 08:15 KEMV 200815Z AUTO 15004KT 18/18 A2958 RMK AO2 T01800180
 
KJGG - Williamsburg, Virginia, USA
Distance from station: ESE 53mi, 85km
Updated: Sat, 20-Apr-2019 4:15am EDT

 Wind from SSE
Wind: SSE 12 mph , 19 km/h, Gust: 17 mph , 28 km/h
Temperature: 70°F , 21°C
Dew Point: 68°F , 20°C
Humidity: 94%
Barometer: 29.58 inHg , 1001.7 hPa
2019/04/20 08:15 KJGG 200815Z AUTO 16010G15KT 140V200 21/20 A2958 RMK AO1
KAVC - South Hill/Meckl, Virginia, USA
Distance from station: SSW 56mi, 90km
Updated: Sat, 20-Apr-2019 4:15am EDT
Overcast
Overcast
 Wind from SW
Wind: SW 6 mph , 9 km/h
Temperature: 63°F , 17°C
Dew Point: 63°F , 17°C
Humidity: 100%
Barometer: 29.62 inHg , 1003 hPa
Clouds: Overcast
Visibility: 10 miles , 16 km
Cloud details: Partly cloudy 1800 ft
Mostly cloudy 6500 ft
Overcast 8500 ft
2019/04/20 08:15 KAVC 200815Z AUTO 22005KT 10SM SCT018 BKN065 OVC085 17/17 A2962 RMK AO2 T01710171
 
KGVE - Gordonsville, Virginia, USA
Distance from station: NNW 58mi, 93km
Updated: Sat, 20-Apr-2019 4:10am EDT
Overcast
Overcast
 Wind from calm
Wind: Calm
Temperature: 64°F , 18°C
Dew Point: 64°F , 18°C
Humidity: 100%
Barometer: 29.53 inHg , 1000 hPa
Clouds: Overcast
Visibility: 10 miles , 16 km
Cloud details: Mostly cloudy 1000 ft
Overcast 1400 ft
2019/04/20 08:10 KGVE 200810Z AUTO 00000KT 10SM BKN010 OVC014 18/18 A2953 RMK AO1 T01780178
KEZF - Fredericksb/Shan, Virginia, USA
Distance from station: N 59mi, 95km
Updated: Sat, 20-Apr-2019 4:15am EDT
Overcast
Overcast
 Wind from ESE
Wind: ESE 7 mph , 11 km/h
Temperature: 66°F , 19°C
Dew Point: 66°F , 19°C
Humidity: 100%
Barometer: 29.53 inHg , 1000 hPa
Clouds: Overcast
Visibility: 10 miles , 16 km
Cloud details: Mostly cloudy 1400 ft
Mostly cloudy 2600 ft
Overcast 5500 ft
2019/04/20 08:15 KEZF 200815Z AUTO 11006KT 10SM BKN014 BKN026 OVC055 19/19 A2953 RMK AO2 T01870187